sensor_id;sensor_type;location;lat;lon;timestamp;pressure;altitude;pressure_sealevel;temperature;humidity
10832;BME280;5469;48.574;8.768;2023-03-18T00:01:57;94454.66;;;11.11;nan
10832;BME280;5469;48.574;8.768;2023-03-18T00:04:30;94459.81;;;11.03;nan
10832;BME280;5469;48.574;8.768;2023-03-18T00:07:04;94456.00;;;10.90;nan
10832;BME280;5469;48.574;8.768;2023-03-18T00:09:37;94462.06;;;10.90;nan
10832;BME280;5469;48.574;8.768;2023-03-18T00:12:11;94471.44;;;10.83;nan
10832;BME280;5469;48.574;8.768;2023-03-18T00:14:44;94469.88;;;10.82;nan
10832;BME280;5469;48.574;8.768;2023-03-18T00:17:19;94469.88;;;10.82;nan
10832;BME280;5469;48.574;8.768;2023-03-18T00:19:53;94474.47;;;10.71;nan
10832;BME280;5469;48.574;8.768;2023-03-18T00:22:26;94476.16;;;10.62;nan
10832;BME280;5469;48.574;8.768;2023-03-18T00:25:01;94475.19;;;10.53;nan
10832;BME280;5469;48.574;8.768;2023-03-18T00:27:36;94478.41;;;10.49;nan
10832;BME280;5469;48.574;8.768;2023-03-18T00:30:11;94472.94;;;10.41;nan
10832;BME280;5469;48.574;8.768;2023-03-18T00:32:46;94475.31;;;10.37;nan
10832;BME280;5469;48.574;8.768;2023-03-18T00:35:20;94487.66;;;10.52;nan
10832;BME280;5469;48.574;8.768;2023-03-18T00:37:53;94487.44;;;10.48;nan
10832;BME280;5469;48.574;8.768;2023-03-18T00:40:28;94485.63;;;10.68;nan
10832;BME280;5469;48.574;8.768;2023-03-18T00:43:14;94488.81;;;10.70;nan
10832;BME280;5469;48.574;8.768;2023-03-18T00:45:48;94492.03;;;10.67;nan
10832;BME280;5469;48.574;8.768;2023-03-18T00:48:24;94495.78;;;10.61;nan
10832;BME280;5469;48.574;8.768;2023-03-18T00:50:58;94498.16;;;10.62;nan
10832;BME280;5469;48.574;8.768;2023-03-18T00:53:32;94493.06;;;10.66;nan
10832;BME280;5469;48.574;8.768;2023-03-18T00:56:05;94490.38;;;10.71;nan
10832;BME280;5469;48.574;8.768;2023-03-18T00:58:39;94486.19;;;10.65;nan
10832;BME280;5469;48.574;8.768;2023-03-18T01:01:13;94492.63;;;10.59;nan
10832;BME280;5469;48.574;8.768;2023-03-18T01:03:50;94479.88;;;10.61;nan
10832;BME280;5469;48.574;8.768;2023-03-18T01:06:25;94488.81;;;10.70;nan
10832;BME280;5469;48.574;8.768;2023-03-18T01:09:00;94484.63;;;10.64;nan
10832;BME280;5469;48.574;8.768;2023-03-18T01:11:35;94481.41;;;10.67;nan
10832;BME280;5469;48.574;8.768;2023-03-18T01:14:08;94483.03;;;10.63;nan
10832;BME280;5469;48.574;8.768;2023-03-18T01:16:43;94478.34;;;10.55;nan
10832;BME280;5469;48.574;8.768;2023-03-18T01:19:19;94484.13;;;10.62;nan
10832;BME280;5469;48.574;8.768;2023-03-18T01:21:52;94480.38;;;10.63;nan
10832;BME280;5469;48.574;8.768;2023-03-18T01:24:26;94477.25;;;10.56;nan
10832;BME280;5469;48.574;8.768;2023-03-18T01:26:59;94482.03;;;10.59;nan
10832;BME280;5469;48.574;8.768;2023-03-18T01:29:33;94491.81;;;10.58;nan
10832;BME280;5469;48.574;8.768;2023-03-18T01:32:06;94485.16;;;10.61;nan
10832;BME280;5469;48.574;8.768;2023-03-18T01:34:42;94479.44;;;10.54;nan
10832;BME280;5469;48.574;8.768;2023-03-18T01:37:15;94479.28;;;10.40;nan
10832;BME280;5469;48.574;8.768;2023-03-18T01:39:50;94477.41;;;10.45;nan
10832;BME280;5469;48.574;8.768;2023-03-18T01:42:24;94469.94;;;10.47;nan
10832;BME280;5469;48.574;8.768;2023-03-18T01:45:16;94471.53;;;10.48;nan
10832;BME280;5469;48.574;8.768;2023-03-18T01:47:50;94479.97;;;10.50;nan
10832;BME280;5469;48.574;8.768;2023-03-18T01:50:28;94473.25;;;10.34;nan
10832;BME280;5469;48.574;8.768;2023-03-18T01:53:07;94476.34;;;10.41;nan
10832;BME280;5469;48.574;8.768;2023-03-18T01:55:43;94490.13;;;10.43;nan
10832;BME280;5469;48.574;8.768;2023-03-18T01:58:20;94478.50;;;10.39;nan
10832;BME280;5469;48.574;8.768;2023-03-18T02:00:59;94479.00;;;10.41;nan
10832;BME280;5469;48.574;8.768;2023-03-18T02:03:34;94481.66;;;10.41;nan
10832;BME280;5469;48.574;8.768;2023-03-18T02:06:09;94487.28;;;10.35;nan
10832;BME280;5469;48.574;8.768;2023-03-18T02:08:43;94482.22;;;10.38;nan
10832;BME280;5469;48.574;8.768;2023-03-18T02:11:17;94481.63;;;10.46;nan
10832;BME280;5469;48.574;8.768;2023-03-18T02:13:50;94477.47;;;10.35;nan
10832;BME280;5469;48.574;8.768;2023-03-18T02:16:26;94476.00;;;10.19;nan
10832;BME280;5469;48.574;8.768;2023-03-18T02:19:06;94473.41;;;10.09;nan
10832;BME280;5469;48.574;8.768;2023-03-18T02:21:50;94473.41;;;9.74;nan
10832;BME280;5469;48.574;8.768;2023-03-18T02:24:32;94472.16;;;9.67;nan
10832;BME280;5469;48.574;8.768;2023-03-18T02:27:17;94462.81;;;9.74;nan
10832;BME280;5469;48.574;8.768;2023-03-18T02:29:53;94474.09;;;9.90;nan
10832;BME280;5469;48.574;8.768;2023-03-18T02:32:30;94478.56;;;9.95;nan
10832;BME280;5469;48.574;8.768;2023-03-18T02:35:07;94472.50;;;9.94;nan
10832;BME280;5469;48.574;8.768;2023-03-18T02:37:41;94476.25;;;9.83;nan
10832;BME280;5469;48.574;8.768;2023-03-18T02:40:17;94478.09;;;9.88;nan
10832;BME280;5469;48.574;8.768;2023-03-18T02:42:53;94473.56;;;9.88;nan
10832;BME280;5469;48.574;8.768;2023-03-18T02:45:34;94478.34;;;9.91;nan
10832;BME280;5469;48.574;8.768;2023-03-18T02:48:14;94471.44;;;9.90;nan
10832;BME280;5469;48.574;8.768;2023-03-18T02:50:49;94468.84;;;9.85;nan
10832;BME280;5469;48.574;8.768;2023-03-18T02:53:23;94477.31;;;9.87;nan
10832;BME280;5469;48.574;8.768;2023-03-18T02:55:57;94473.13;;;9.81;nan
10832;BME280;5469;48.574;8.768;2023-03-18T02:58:32;94471.78;;;9.83;nan
10832;BME280;5469;48.574;8.768;2023-03-18T03:01:06;94476.50;;;9.87;nan
10832;BME280;5469;48.574;8.768;2023-03-18T03:03:40;94482.03;;;9.90;nan
10832;BME280;5469;48.574;8.768;2023-03-18T03:06:13;94489.03;;;9.76;nan
10832;BME280;5469;48.574;8.768;2023-03-18T03:08:46;94489.09;;;9.66;nan
10832;BME280;5469;48.574;8.768;2023-03-18T03:11:20;94488.03;;;9.67;nan
10832;BME280;5469;48.574;8.768;2023-03-18T03:13:56;94488.56;;;9.63;nan
10832;BME280;5469;48.574;8.768;2023-03-18T03:16:29;94492.25;;;9.68;nan
10832;BME280;5469;48.574;8.768;2023-03-18T03:19:03;94490.06;;;9.75;nan
10832;BME280;5469;48.574;8.768;2023-03-18T03:21:38;94500.09;;;9.78;nan
10832;BME280;5469;48.574;8.768;2023-03-18T03:24:11;94497.63;;;9.57;nan
10832;BME280;5469;48.574;8.768;2023-03-18T03:26:44;94496.47;;;9.69;nan
10832;BME280;5469;48.574;8.768;2023-03-18T03:29:19;94491.75;;;9.66;nan
10832;BME280;5469;48.574;8.768;2023-03-18T03:31:53;94507.09;;;9.63;nan
10832;BME280;5469;48.574;8.768;2023-03-18T03:34:26;94497.81;;;9.66;nan
10832;BME280;5469;48.574;8.768;2023-03-18T03:37:00;94505.22;;;9.64;nan
10832;BME280;5469;48.574;8.768;2023-03-18T03:39:33;94502.59;;;9.64;nan
10832;BME280;5469;48.574;8.768;2023-03-18T03:42:06;94499.72;;;9.55;nan
10832;BME280;5469;48.574;8.768;2023-03-18T03:44:41;94493.41;;;9.51;nan
10832;BME280;5469;48.574;8.768;2023-03-18T03:47:15;94499.22;;;9.53;nan
10832;BME280;5469;48.574;8.768;2023-03-18T03:49:48;94496.53;;;9.58;nan
10832;BME280;5469;48.574;8.768;2023-03-18T03:52:23;94499.75;;;9.50;nan
10832;BME280;5469;48.574;8.768;2023-03-18T03:54:57;94497.69;;;9.42;nan
10832;BME280;5469;48.574;8.768;2023-03-18T03:57:31;94493.97;;;9.43;nan
10832;BME280;5469;48.574;8.768;2023-03-18T04:00:09;94491.31;;;9.43;nan
10832;BME280;5469;48.574;8.768;2023-03-18T04:02:44;94500.91;;;9.34;nan
10832;BME280;5469;48.574;8.768;2023-03-18T04:05:20;94494.81;;;9.33;nan
10832;BME280;5469;48.574;8.768;2023-03-18T04:07:54;94497.97;;;9.35;nan
10832;BME280;5469;48.574;8.768;2023-03-18T04:10:30;94496.66;;;9.38;nan
10832;BME280;5469;48.574;8.768;2023-03-18T04:13:06;94503.03;;;9.32;nan
10832;BME280;5469;48.574;8.768;2023-03-18T04:15:41;94503.25;;;9.35;nan
10832;BME280;5469;48.574;8.768;2023-03-18T04:18:14;94509.38;;;9.26;nan
10832;BME280;5469;48.574;8.768;2023-03-18T04:20:48;94500.41;;;9.27;nan
10832;BME280;5469;48.574;8.768;2023-03-18T04:23:21;94501.69;;;9.34;nan
10832;BME280;5469;48.574;8.768;2023-03-18T04:25:55;94504.03;;;9.41;nan
10832;BME280;5469;48.574;8.768;2023-03-18T04:28:28;94504.59;;;9.33;nan
10832;BME280;5469;48.574;8.768;2023-03-18T04:31:03;94503.06;;;9.27;nan
10832;BME280;5469;48.574;8.768;2023-03-18T04:33:37;94503.66;;;9.08;nan
10832;BME280;5469;48.574;8.768;2023-03-18T04:36:11;94496.88;;;8.77;nan
10832;BME280;5469;48.574;8.768;2023-03-18T04:38:44;94497.69;;;8.67;nan
10832;BME280;5469;48.574;8.768;2023-03-18T04:41:17;94504.31;;;8.69;nan
10832;BME280;5469;48.574;8.768;2023-03-18T04:43:51;94497.41;;;8.73;nan
10832;BME280;5469;48.574;8.768;2023-03-18T04:46:26;94502.94;;;8.87;nan
10832;BME280;5469;48.574;8.768;2023-03-18T04:49:01;94504.78;;;8.82;nan
10832;BME280;5469;48.574;8.768;2023-03-18T04:51:34;94504.50;;;8.88;nan
10832;BME280;5469;48.574;8.768;2023-03-18T04:54:08;94504.75;;;8.87;nan
10832;BME280;5469;48.574;8.768;2023-03-18T04:56:43;94506.34;;;8.93;nan
10832;BME280;5469;48.574;8.768;2023-03-18T04:59:17;94511.09;;;8.96;nan
10832;BME280;5469;48.574;8.768;2023-03-18T05:01:52;94507.94;;;8.94;nan
10832;BME280;5469;48.574;8.768;2023-03-18T05:04:26;94497.91;;;8.91;nan
10832;BME280;5469;48.574;8.768;2023-03-18T05:06:59;94501.59;;;8.90;nan
10832;BME280;5469;48.574;8.768;2023-03-18T05:09:33;94511.66;;;8.83;nan
10832;BME280;5469;48.574;8.768;2023-03-18T05:12:11;94505.84;;;8.81;nan
10832;BME280;5469;48.574;8.768;2023-03-18T05:14:45;94510.59;;;8.79;nan
10832;BME280;5469;48.574;8.768;2023-03-18T05:17:20;94506.41;;;8.78;nan
10832;BME280;5469;48.574;8.768;2023-03-18T05:19:54;94510.59;;;8.84;nan
10832;BME280;5469;48.574;8.768;2023-03-18T05:22:28;94510.59;;;8.89;nan
10832;BME280;5469;48.574;8.768;2023-03-18T05:25:01;94511.94;;;8.76;nan
10832;BME280;5469;48.574;8.768;2023-03-18T05:27:35;94514.06;;;8.64;nan
10832;BME280;5469;48.574;8.768;2023-03-18T05:30:10;94508.00;;;8.63;nan
10832;BME280;5469;48.574;8.768;2023-03-18T05:32:45;94515.91;;;8.68;nan
10832;BME280;5469;48.574;8.768;2023-03-18T05:35:19;94513.28;;;8.68;nan
10832;BME280;5469;48.574;8.768;2023-03-18T05:37:52;94508.50;;;8.70;nan
10832;BME280;5469;48.574;8.768;2023-03-18T05:40:26;94514.88;;;8.74;nan
10832;BME280;5469;48.574;8.768;2023-03-18T05:42:59;94511.69;;;8.67;nan
10832;BME280;5469;48.574;8.768;2023-03-18T05:45:33;94519.34;;;8.64;nan
10832;BME280;5469;48.574;8.768;2023-03-18T05:48:07;94521.22;;;8.58;nan
10832;BME280;5469;48.574;8.768;2023-03-18T05:50:42;94513.84;;;8.45;nan
10832;BME280;5469;48.574;8.768;2023-03-18T05:53:15;94517.53;;;8.44;nan
10832;BME280;5469;48.574;8.768;2023-03-18T05:55:49;94518.09;;;8.41;nan
10832;BME280;5469;48.574;8.768;2023-03-18T05:58:22;94511.72;;;8.52;nan
10832;BME280;5469;48.574;8.768;2023-03-18T06:00:56;94516.47;;;8.45;nan
10832;BME280;5469;48.574;8.768;2023-03-18T06:03:32;94520.72;;;8.41;nan
10832;BME280;5469;48.574;8.768;2023-03-18T06:06:06;94517.78;;;8.52;nan
10832;BME280;5469;48.574;8.768;2023-03-18T06:08:40;94516.75;;;8.59;nan
10832;BME280;5469;48.574;8.768;2023-03-18T06:11:13;94521.75;;;8.45;nan
10832;BME280;5469;48.574;8.768;2023-03-18T06:13:47;94513.81;;;8.60;nan
10832;BME280;5469;48.574;8.768;2023-03-18T06:16:21;94512.25;;;8.59;nan
10832;BME280;5469;48.574;8.768;2023-03-18T06:18:56;94513.28;;;8.63;nan
10832;BME280;5469;48.574;8.768;2023-03-18T06:21:30;94519.09;;;8.70;nan
10832;BME280;5469;48.574;8.768;2023-03-18T06:24:04;94525.44;;;8.64;nan
10832;BME280;5469;48.574;8.768;2023-03-18T06:26:37;94513.03;;;8.60;nan
10832;BME280;5469;48.574;8.768;2023-03-18T06:29:11;94532.84;;;8.62;nan
10832;BME280;5469;48.574;8.768;2023-03-18T06:31:44;94530.72;;;8.74;nan
10832;BME280;5469;48.574;8.768;2023-03-18T06:34:19;94531.22;;;8.71;nan
10832;BME280;5469;48.574;8.768;2023-03-18T06:36:53;94532.81;;;8.83;nan
10832;BME280;5469;48.574;8.768;2023-03-18T06:39:27;94527.00;;;8.75;nan
10832;BME280;5469;48.574;8.768;2023-03-18T06:42:00;94530.19;;;8.78;nan
10832;BME280;5469;48.574;8.768;2023-03-18T06:44:34;94534.91;;;8.86;nan
10832;BME280;5469;48.574;8.768;2023-03-18T06:47:07;94532.25;;;8.86;nan
10832;BME280;5469;48.574;8.768;2023-03-18T06:49:42;94529.59;;;8.91;nan
10832;BME280;5469;48.574;8.768;2023-03-18T06:52:16;94528.28;;;8.93;nan
10832;BME280;5469;48.574;8.768;2023-03-18T06:54:50;94521.66;;;8.96;nan
10832;BME280;5469;48.574;8.768;2023-03-18T06:57:24;94529.59;;;9.01;nan
10832;BME280;5469;48.574;8.768;2023-03-18T06:59:58;94517.91;;;9.07;nan
10832;BME280;5469;48.574;8.768;2023-03-18T07:02:31;94531.13;;;9.12;nan
10832;BME280;5469;48.574;8.768;2023-03-18T07:05:07;94528.75;;;9.16;nan
10832;BME280;5469;48.574;8.768;2023-03-18T07:07:40;94532.13;;;9.27;nan
10832;BME280;5469;48.574;8.768;2023-03-18T07:10:18;94536.84;;;9.40;nan
10832;BME280;5469;48.574;8.768;2023-03-18T07:12:53;94538.91;;;9.48;nan
10832;BME280;5469;48.574;8.768;2023-03-18T07:15:26;94535.16;;;9.59;nan
10832;BME280;5469;48.574;8.768;2023-03-18T07:18:00;94532.97;;;9.72;nan
10832;BME280;5469;48.574;8.768;2023-03-18T07:20:37;94526.56;;;9.78;nan
10832;BME280;5469;48.574;8.768;2023-03-18T07:23:11;94542.16;;;9.84;nan
10832;BME280;5469;48.574;8.768;2023-03-18T07:25:44;94541.34;;;9.89;nan
10832;BME280;5469;48.574;8.768;2023-03-18T07:28:17;94543.94;;;9.99;nan
10832;BME280;5469;48.574;8.768;2023-03-18T07:30:51;94542.34;;;9.98;nan
10832;BME280;5469;48.574;8.768;2023-03-18T07:33:25;94545.44;;;10.11;nan
10832;BME280;5469;48.574;8.768;2023-03-18T07:36:01;94555.25;;;10.10;nan
10832;BME280;5469;48.574;8.768;2023-03-18T07:38:34;94548.28;;;10.19;nan
10832;BME280;5469;48.574;8.768;2023-03-18T07:41:07;94559.69;;;10.20;nan
10832;BME280;5469;48.574;8.768;2023-03-18T07:43:41;94552.19;;;10.32;nan
10832;BME280;5469;48.574;8.768;2023-03-18T07:46:14;94561.44;;;10.35;nan
10832;BME280;5469;48.574;8.768;2023-03-18T07:48:48;94554.00;;;10.37;nan
10832;BME280;5469;48.574;8.768;2023-03-18T07:51:22;94551.09;;;10.38;nan
10832;BME280;5469;48.574;8.768;2023-03-18T07:53:56;94559.38;;;10.61;nan
10832;BME280;5469;48.574;8.768;2023-03-18T07:56:29;94556.22;;;10.59;nan
10832;BME280;5469;48.574;8.768;2023-03-18T07:59:03;94550.84;;;10.69;nan
10832;BME280;5469;48.574;8.768;2023-03-18T08:01:36;94550.69;;;10.84;nan
10832;BME280;5469;48.574;8.768;2023-03-18T08:04:10;94558.03;;;10.92;nan
10832;BME280;5469;48.574;8.768;2023-03-18T08:06:45;94553.59;;;11.12;nan
10832;BME280;5469;48.574;8.768;2023-03-18T08:09:19;94552.91;;;11.25;nan
10832;BME280;5469;48.574;8.768;2023-03-18T08:11:53;94547.38;;;11.22;nan
10832;BME280;5469;48.574;8.768;2023-03-18T08:14:26;94548.56;;;11.34;nan
10832;BME280;5469;48.574;8.768;2023-03-18T08:17:00;94552.34;;;11.52;nan
10832;BME280;5469;48.574;8.768;2023-03-18T08:19:36;94546.31;;;11.66;nan
10832;BME280;5469;48.574;8.768;2023-03-18T08:22:14;94553.56;;;11.60;nan
10832;BME280;5469;48.574;8.768;2023-03-18T08:24:49;94549.53;;;11.87;nan
10832;BME280;5469;48.574;8.768;2023-03-18T08:27:26;94550.94;;;11.79;nan
10832;BME280;5469;48.574;8.768;2023-03-18T08:30:03;94552.59;;;12.13;nan
10832;BME280;5469;48.574;8.768;2023-03-18T08:32:39;94553.91;;;11.72;nan
10832;BME280;5469;48.574;8.768;2023-03-18T08:35:14;94553.75;;;11.88;nan
10832;BME280;5469;48.574;8.768;2023-03-18T08:37:54;94553.16;;;12.29;nan
10832;BME280;5469;48.574;8.768;2023-03-18T08:40:30;94553.09;;;12.66;nan
10832;BME280;5469;48.574;8.768;2023-03-18T08:43:07;94551.75;;;12.50;nan
10832;BME280;5469;48.574;8.768;2023-03-18T08:45:42;94554.09;;;12.71;nan
10832;BME280;5469;48.574;8.768;2023-03-18T08:48:18;94558.38;;;12.53;nan
10832;BME280;5469;48.574;8.768;2023-03-18T08:50:54;94552.28;;;12.52;nan
10832;BME280;5469;48.574;8.768;2023-03-18T08:53:32;94555.44;;;12.87;nan
10832;BME280;5469;48.574;8.768;2023-03-18T08:56:08;94548.09;;;12.79;nan
10832;BME280;5469;48.574;8.768;2023-03-18T08:58:45;94547.19;;;12.70;nan
10832;BME280;5469;48.574;8.768;2023-03-18T09:01:21;94533.38;;;13.14;nan
10832;BME280;5469;48.574;8.768;2023-03-18T09:03:56;94539.44;;;13.33;nan
10832;BME280;5469;48.574;8.768;2023-03-18T09:06:32;94539.41;;;13.47;nan
10832;BME280;5469;48.574;8.768;2023-03-18T09:09:09;94538.84;;;13.37;nan
10832;BME280;5469;48.574;8.768;2023-03-18T09:11:44;94528.06;;;13.55;nan
10832;BME280;5469;48.574;8.768;2023-03-18T09:14:21;94540.22;;;13.34;nan
10832;BME280;5469;48.574;8.768;2023-03-18T09:16:56;94533.81;;;13.35;nan
10832;BME280;5469;48.574;8.768;2023-03-18T09:19:32;94536.25;;;13.45;nan
10832;BME280;5469;48.574;8.768;2023-03-18T09:22:08;94531.72;;;13.60;nan
10832;BME280;5469;48.574;8.768;2023-03-18T09:24:45;94529.09;;;13.82;nan
10832;BME280;5469;48.574;8.768;2023-03-18T09:27:20;94526.88;;;14.12;nan
10832;BME280;5469;48.574;8.768;2023-03-18T09:29:58;94526.97;;;14.07;nan
10832;BME280;5469;48.574;8.768;2023-03-18T09:32:33;94532.63;;;14.28;nan
10832;BME280;5469;48.574;8.768;2023-03-18T09:35:11;94531.72;;;14.32;nan
10832;BME280;5469;48.574;8.768;2023-03-18T09:37:46;94529.53;;;14.34;nan
10832;BME280;5469;48.574;8.768;2023-03-18T09:40:26;94529.69;;;14.74;nan
10832;BME280;5469;48.574;8.768;2023-03-18T09:43:10;94524.13;;;14.93;nan
10832;BME280;5469;48.574;8.768;2023-03-18T09:45:54;94527.16;;;15.09;nan
10832;BME280;5469;48.574;8.768;2023-03-18T09:48:43;94522.81;;;15.13;nan
10832;BME280;5469;48.574;8.768;2023-03-18T09:51:31;94518.59;;;15.69;nan
10832;BME280;5469;48.574;8.768;2023-03-18T09:54:13;94506.50;;;17.74;nan
10832;BME280;5469;48.574;8.768;2023-03-18T09:56:52;94513.19;;;17.68;nan
10832;BME280;5469;48.574;8.768;2023-03-18T09:59:33;94509.63;;;16.61;nan
10832;BME280;5469;48.574;8.768;2023-03-18T10:02:19;94517.88;;;17.71;nan
10832;BME280;5469;48.574;8.768;2023-03-18T10:04:57;94511.28;;;18.73;nan
10832;BME280;5469;48.574;8.768;2023-03-18T10:07:39;94510.94;;;20.06;nan
10832;BME280;5469;48.574;8.768;2023-03-18T10:10:21;94519.72;;;19.54;nan
10832;BME280;5469;48.574;8.768;2023-03-18T10:13:04;94520.22;;;20.21;nan
10832;BME280;5469;48.574;8.768;2023-03-18T10:15:52;94523.06;;;19.88;nan
10832;BME280;5469;48.574;8.768;2023-03-18T10:18:32;94514.81;;;21.37;nan
10832;BME280;5469;48.574;8.768;2023-03-18T10:21:19;94507.25;;;22.10;nan
10832;BME280;5469;48.574;8.768;2023-03-18T10:24:05;94519.00;;;21.83;nan
10832;BME280;5469;48.574;8.768;2023-03-18T10:26:48;94522.78;;;20.86;nan
10832;BME280;5469;48.574;8.768;2023-03-18T10:29:33;94512.38;;;23.59;nan
10832;BME280;5469;48.574;8.768;2023-03-18T10:32:18;94517.16;;;21.07;nan
10832;BME280;5469;48.574;8.768;2023-03-18T10:35:01;94511.97;;;22.13;nan
10832;BME280;5469;48.574;8.768;2023-03-18T10:37:47;94506.59;;;23.37;nan
10832;BME280;5469;48.574;8.768;2023-03-18T10:40:25;94516.94;;;21.60;nan
10832;BME280;5469;48.574;8.768;2023-03-18T10:43:05;94510.44;;;22.71;nan
10832;BME280;5469;48.574;8.768;2023-03-18T10:45:53;94512.50;;;22.03;nan
10832;BME280;5469;48.574;8.768;2023-03-18T10:48:37;94508.91;;;24.11;nan
10832;BME280;5469;48.574;8.768;2023-03-18T10:51:18;94515.75;;;23.79;nan
10832;BME280;5469;48.574;8.768;2023-03-18T10:53:59;94515.75;;;23.79;nan
10832;BME280;5469;48.574;8.768;2023-03-18T10:56:38;94515.75;;;23.79;nan
10832;BME280;5469;48.574;8.768;2023-03-18T10:59:15;94498.72;;;24.31;nan
10832;BME280;5469;48.574;8.768;2023-03-18T11:01:56;64575.81;;;-144.83;100.00
10832;BME280;5469;48.574;8.768;2023-03-18T11:04:37;64575.81;;;-144.83;100.00
10832;BME280;5469;48.574;8.768;2023-03-18T11:07:23;94498.72;;;24.31;nan
10832;BME280;5469;48.574;8.768;2023-03-18T11:10:15;94491.75;;;22.42;nan
10832;BME280;5469;48.574;8.768;2023-03-18T11:12:56;94492.09;;;23.98;nan
10832;BME280;5469;48.574;8.768;2023-03-18T11:15:38;94494.06;;;22.63;nan
10832;BME280;5469;48.574;8.768;2023-03-18T11:18:21;94477.22;;;23.85;nan
10832;BME280;5469;48.574;8.768;2023-03-18T11:20:59;94478.09;;;25.80;nan
10832;BME280;5469;48.574;8.768;2023-03-18T11:23:54;94485.53;;;26.60;nan
10832;BME280;5469;48.574;8.768;2023-03-18T11:26:45;94479.59;;;26.40;nan
10832;BME280;5469;48.574;8.768;2023-03-18T11:29:25;94490.28;;;25.07;nan
10832;BME280;5469;48.574;8.768;2023-03-18T11:32:02;94487.84;;;24.95;nan
10832;BME280;5469;48.574;8.768;2023-03-18T11:34:38;94486.34;;;25.90;nan
10832;BME280;5469;48.574;8.768;2023-03-18T11:37:13;94478.72;;;27.19;nan
10832;BME280;5469;48.574;8.768;2023-03-18T11:39:48;94477.53;;;26.11;nan
10832;BME280;5469;48.574;8.768;2023-03-18T11:42:23;94481.56;;;23.67;nan
10832;BME280;5469;48.574;8.768;2023-03-18T11:45:01;94488.53;;;24.21;nan
10832;BME280;5469;48.574;8.768;2023-03-18T11:47:42;94478.22;;;24.64;nan
10832;BME280;5469;48.574;8.768;2023-03-18T11:50:20;94472.63;;;26.42;nan
10832;BME280;5469;48.574;8.768;2023-03-18T11:52:58;94469.34;;;29.02;nan
10832;BME280;5469;48.574;8.768;2023-03-18T11:55:41;94466.34;;;26.20;nan
10832;BME280;5469;48.574;8.768;2023-03-18T11:58:43;94463.75;;;23.66;nan
10832;BME280;5469;48.574;8.768;2023-03-18T12:01:25;94462.75;;;25.46;nan
10832;BME280;5469;48.574;8.768;2023-03-18T12:07:39;94455.31;;;25.91;nan
10832;BME280;5469;48.574;8.768;2023-03-18T12:10:22;94453.59;;;23.82;nan
10832;BME280;5469;48.574;8.768;2023-03-18T12:13:05;94457.09;;;24.13;nan
10832;BME280;5469;48.574;8.768;2023-03-18T12:15:48;94449.53;;;26.98;nan
10832;BME280;5469;48.574;8.768;2023-03-18T12:22:07;94443.03;;;26.23;nan
10832;BME280;5469;48.574;8.768;2023-03-18T12:25:06;94444.84;;;25.90;nan
10832;BME280;5469;48.574;8.768;2023-03-18T12:27:54;94438.75;;;26.14;nan
10832;BME280;5469;48.574;8.768;2023-03-18T12:30:50;94447.75;;;26.33;nan
10832;BME280;5469;48.574;8.768;2023-03-18T12:33:52;94446.84;;;26.00;nan
10832;BME280;5469;48.574;8.768;2023-03-18T12:36:37;94444.53;;;26.09;nan
10832;BME280;5469;48.574;8.768;2023-03-18T12:39:47;94443.28;;;26.87;nan
10832;BME280;5469;48.574;8.768;2023-03-18T12:42:37;94443.03;;;25.08;nan
10832;BME280;5469;48.574;8.768;2023-03-18T12:45:29;94436.03;;;26.07;nan
10832;BME280;5469;48.574;8.768;2023-03-18T12:48:31;94435.88;;;26.77;nan
10832;BME280;5469;48.574;8.768;2023-03-18T12:51:14;94428.97;;;25.99;nan
10832;BME280;5469;48.574;8.768;2023-03-18T12:54:04;94429.25;;;26.56;nan
10832;BME280;5469;48.574;8.768;2023-03-18T12:56:44;94431.94;;;25.76;nan
10832;BME280;5469;48.574;8.768;2023-03-18T12:59:41;94425.47;;;24.92;nan
10832;BME280;5469;48.574;8.768;2023-03-18T13:02:35;94420.56;;;26.26;nan
10832;BME280;5469;48.574;8.768;2023-03-18T13:05:34;94421.50;;;27.95;nan
10832;BME280;5469;48.574;8.768;2023-03-18T13:11:25;94419.22;;;25.28;nan
10832;BME280;5469;48.574;8.768;2023-03-18T13:14:11;94418.22;;;24.28;nan
10832;BME280;5469;48.574;8.768;2023-03-18T13:16:50;94424.75;;;23.67;nan
10832;BME280;5469;48.574;8.768;2023-03-18T13:19:26;94431.41;;;21.96;nan
10832;BME280;5469;48.574;8.768;2023-03-18T13:22:08;94427.09;;;22.96;nan
10832;BME280;5469;48.574;8.768;2023-03-18T13:25:02;94428.09;;;22.64;nan
10832;BME280;5469;48.574;8.768;2023-03-18T13:27:43;94428.28;;;23.44;nan
10832;BME280;5469;48.574;8.768;2023-03-18T13:30:27;94426.00;;;22.77;nan
10832;BME280;5469;48.574;8.768;2023-03-18T13:33:31;94423.47;;;22.22;nan
10832;BME280;5469;48.574;8.768;2023-03-18T13:36:18;94429.56;;;20.54;nan
10832;BME280;5469;48.574;8.768;2023-03-18T13:39:11;94420.78;;;20.41;nan
10832;BME280;5469;48.574;8.768;2023-03-18T13:42:13;94424.84;;;21.26;nan
10832;BME280;5469;48.574;8.768;2023-03-18T13:44:59;94418.28;;;21.59;nan
10832;BME280;5469;48.574;8.768;2023-03-18T13:47:39;94414.63;;;21.87;nan
10832;BME280;5469;48.574;8.768;2023-03-18T13:50:30;94412.81;;;23.18;nan
10832;BME280;5469;48.574;8.768;2023-03-18T13:53:15;94406.97;;;22.93;nan
10832;BME280;5469;48.574;8.768;2023-03-18T13:56:04;94409.97;;;22.42;nan
10832;BME280;5469;48.574;8.768;2023-03-18T13:58:45;94399.03;;;21.96;nan
10832;BME280;5469;48.574;8.768;2023-03-18T14:01:46;94405.44;;;22.92;nan
10832;BME280;5469;48.574;8.768;2023-03-18T14:04:28;94409.91;;;22.19;nan
10832;BME280;5469;48.574;8.768;2023-03-18T14:07:17;94409.94;;;20.09;nan
10832;BME280;5469;48.574;8.768;2023-03-18T14:09:55;94402.25;;;20.67;nan
10832;BME280;5469;48.574;8.768;2023-03-18T14:12:43;94408.69;;;20.94;nan
10832;BME280;5469;48.574;8.768;2023-03-18T14:15:41;94404.59;;;20.25;nan
10832;BME280;5469;48.574;8.768;2023-03-18T14:18:22;94415.38;;;20.69;nan
10832;BME280;5469;48.574;8.768;2023-03-18T14:21:02;94405.22;;;22.35;nan
10832;BME280;5469;48.574;8.768;2023-03-18T14:23:44;94399.22;;;22.07;nan
10832;BME280;5469;48.574;8.768;2023-03-18T14:26:21;94404.69;;;22.49;nan
10832;BME280;5469;48.574;8.768;2023-03-18T14:29:13;94393.53;;;21.53;nan
10832;BME280;5469;48.574;8.768;2023-03-18T14:31:57;94395.91;;;21.23;nan
10832;BME280;5469;48.574;8.768;2023-03-18T14:34:32;94394.88;;;21.12;nan
10832;BME280;5469;48.574;8.768;2023-03-18T14:37:23;94397.66;;;20.68;nan
10832;BME280;5469;48.574;8.768;2023-03-18T14:40:03;94396.25;;;21.06;nan
10832;BME280;5469;48.574;8.768;2023-03-18T14:42:51;94400.00;;;20.85;nan
10832;BME280;5469;48.574;8.768;2023-03-18T14:45:32;94387.59;;;20.97;nan
10832;BME280;5469;48.574;8.768;2023-03-18T14:48:12;94386.72;;;20.92;nan